Time;durP1;ratioP1;P1;durP2;ratioP2;P2;SDS_P1;SDS_P2;PMS_P1;PMS_P2;Temp;Humidity;BMP_temperature;BMP_pressure;BME280_temperature;BME280_humidity;BME280_pressure;Samples;Min_cycle;Max_cycle;Signal;HPM_P1;HPM_P2
2023/05/01 00:02:01;;;;;;;7.03;2.72;;;;;;;12.57;44.46;100084.13;5011235;28;20058;-80
2023/05/01 00:04:27;;;;;;;4.95;2.60;;;;;;;12.58;44.65;100082.31;5011332;28;20104;-80
2023/05/01 00:06:54;;;;;;;6.50;2.63;;;;;;;12.59;44.45;100076.06;4993082;28;20057;-78
2023/05/01 00:09:21;;;;;;;4.40;2.20;;;;;;;12.60;44.47;100081.28;5010813;28;20050;-79
2023/05/01 00:11:47;;;;;;;3.65;2.50;;;;;;;12.62;44.62;100075.91;5010555;28;20060;-79
2023/05/01 00:14:14;;;;;;;5.80;2.92;;;;;;;12.63;44.77;100078.47;5011277;28;20434;-79
2023/05/01 00:16:40;;;;;;;6.28;2.55;;;;;;;12.65;44.55;100070.44;5010332;28;20108;-79
2023/05/01 00:19:07;;;;;;;5.18;2.75;;;;;;;12.65;44.23;100062.53;5010889;28;20518;-79
2023/05/01 00:21:34;;;;;;;3.85;2.45;;;;;;;12.66;43.95;100060.72;5011034;28;20077;-79
2023/05/01 00:24:00;;;;;;;5.22;2.70;;;;;;;12.66;43.93;100060.72;5010981;28;20136;-79
2023/05/01 00:26:30;;;;;;;4.30;2.22;;;;;;;12.66;43.95;100051.00;5010272;28;20081;-79
2023/05/01 00:28:57;;;;;;;5.43;2.30;;;;;;;12.67;43.88;100054.50;5010659;28;20073;-80
2023/05/01 00:31:24;;;;;;;6.43;2.72;;;;;;;12.67;44.11;100057.16;5010826;28;20156;-79
2023/05/01 00:33:51;;;;;;;7.13;2.67;;;;;;;12.67;43.95;100049.22;5010960;28;20050;-78
2023/05/01 00:36:18;;;;;;;4.25;2.50;;;;;;;12.66;43.58;100048.38;4993072;28;20069;-80
2023/05/01 00:38:45;;;;;;;7.13;2.85;;;;;;;12.67;43.74;100049.22;5010174;28;20045;-79
2023/05/01 00:41:11;;;;;;;8.88;2.58;;;;;;;12.68;43.69;100043.00;5010766;28;20591;-78
2023/05/01 00:43:38;;;;;;;5.05;2.80;;;;;;;12.68;43.45;100035.94;5010684;28;20096;-78
2023/05/01 00:46:05;;;;;;;7.25;2.45;;;;;;;12.68;43.38;100038.56;5010381;28;20100;-79
2023/05/01 00:48:31;;;;;;;5.20;2.60;;;;;;;12.69;43.15;100028.84;5010217;28;20049;-79
2023/05/01 00:50:59;;;;;;;6.20;2.50;;;;;;;12.68;43.45;100029.78;5010560;28;20076;-80
2023/05/01 00:53:27;;;;;;;9.13;2.60;;;;;;;12.69;43.41;100028.84;5010549;28;20089;-79
2023/05/01 00:55:56;;;;;;;10.05;2.75;;;;;;;12.68;43.23;100019.22;5010034;28;20085;-79
2023/05/01 00:58:22;;;;;;;6.35;2.50;;;;;;;12.68;43.29;100014.81;5010199;28;20095;-79
2023/05/01 01:00:49;;;;;;;5.13;2.25;;;;;;;12.67;43.17;100010.44;5010455;28;20054;-79
2023/05/01 01:03:15;;;;;;;6.75;3.00;;;;;;;12.66;43.30;100013.16;5010465;28;20093;-79
2023/05/01 01:05:53;;;;;;;7.35;2.75;;;;;;;12.62;43.64;100008.09;5010072;28;20054;-79
2023/05/01 01:08:42;;;;;;;6.95;2.60;;;;;;;12.59;43.33;99995.06;5009905;28;20053;-79
2023/05/01 01:11:12;;;;;;;6.10;2.47;;;;;;;12.57;42.88;100002.25;4996672;28;20140;-78
2023/05/01 01:13:39;;;;;;;4.20;2.20;;;;;;;12.53;42.74;99992.84;5010391;28;20076;-80
2023/05/01 01:16:22;;;;;;;7.85;3.00;;;;;;;12.43;43.04;99983.75;5009892;28;20096;-79
2023/05/01 01:19:01;;;;;;;4.95;2.45;;;;;;;12.41;43.56;99986.47;4992408;28;20046;-80
2023/05/01 01:21:33;;;;;;;8.85;3.10;;;;;;;12.38;43.46;99979.59;5011697;28;20050;-80
2023/05/01 01:24:10;;;;;;;5.88;2.25;;;;;;;12.38;43.19;99982.25;5013865;28;20060;-79
2023/05/01 01:26:49;;;;;;;8.80;2.60;;;;;;;12.34;43.24;99972.81;5012982;28;20045;-79
2023/05/01 01:29:31;;;;;;;7.25;2.45;;;;;;;12.33;43.13;99972.91;5013800;28;20053;-79
2023/05/01 01:32:30;;;;;;;3.75;2.15;;;;;;;12.30;43.10;99975.75;5014093;28;20041;-79
2023/05/01 01:35:06;;;;;;;4.72;2.55;;;;;;;12.29;43.09;99974.06;5013714;28;20053;-79
2023/05/01 01:37:48;;;;;;;5.88;2.42;;;;;;;12.24;42.99;99966.41;5013589;28;20089;-79
2023/05/01 01:40:21;;;;;;;6.53;2.33;;;;;;;12.24;43.18;99966.41;5013592;28;20160;-79
2023/05/01 01:42:57;;;;;;;4.63;2.28;;;;;;;12.21;43.20;99967.44;5013589;28;20058;-79
2023/05/01 01:45:51;;;;;;;4.38;2.28;;;;;;;12.19;43.07;99963.22;4995750;28;20068;-79
2023/05/01 01:48:25;;;;;;;5.20;2.40;;;;;;;12.22;43.25;99963.00;5013171;28;20054;-80
2023/05/01 01:50:56;;;;;;;5.93;2.65;;;;;;;12.22;43.17;99949.81;5013361;28;20049;-78
2023/05/01 01:53:25;;;;;;;7.18;2.88;;;;;;;12.21;43.50;99948.13;4995916;28;20812;-80
2023/05/01 01:55:55;;;;;;;3.83;1.98;;;;;;;12.21;43.04;99948.13;5012790;28;20050;-80
2023/05/01 02:00:50;;;;;;;4.55;2.00;;;;;;;12.21;43.01;99940.19;5034454;23;20119;-78
2023/05/01 02:03:16;;;;;;;5.05;2.40;;;;;;;12.21;43.01;99943.69;5032212;28;20392;-78
2023/05/01 02:05:45;;;;;;;5.80;2.67;;;;;;;12.21;43.17;99935.78;5031849;28;20062;-78
2023/05/01 02:08:14;;;;;;;5.22;2.20;;;;;;;12.22;42.77;99934.81;5031745;28;20547;-78
2023/05/01 02:10:42;;;;;;;5.88;2.22;;;;;;;12.23;42.69;99936.53;5031975;28;20049;-78
2023/05/01 02:13:11;;;;;;;5.72;2.40;;;;;;;12.23;42.50;99925.97;5032045;28;20475;-79
2023/05/01 02:15:39;;;;;;;4.68;2.35;;;;;;;12.22;42.82;99926.06;5031631;28;20492;-79
2023/05/01 02:18:07;;;;;;;8.10;2.47;;;;;;;12.23;43.02;99927.78;5031643;28;20057;-78
2023/05/01 02:20:36;;;;;;;4.55;2.38;;;;;;;12.21;42.69;99924.38;5031887;28;20465;-78
2023/05/01 02:23:06;;;;;;;7.15;2.33;;;;;;;12.21;42.91;99921.72;5031773;28;20054;-78
2023/05/01 02:25:36;;;;;;;4.38;2.20;;;;;;;12.20;43.08;99920.91;5031449;28;20491;-78
2023/05/01 02:28:11;;;;;;;5.50;2.05;;;;;;;12.17;43.08;99920.22;5031600;28;20095;-78
2023/05/01 02:30:38;;;;;;;6.43;2.40;;;;;;;12.18;42.80;99917.47;5031720;28;20049;-78
2023/05/01 02:33:08;;;;;;;5.63;2.35;;;;;;;12.15;43.02;99911.56;5029943;28;20057;-77
2023/05/01 02:35:42;;;;;;;4.63;2.33;;;;;;;12.12;43.40;99908.16;5031218;28;20057;-78
2023/05/01 02:38:11;;;;;;;3.67;2.30;;;;;;;12.15;42.80;99908.91;5031064;28;20621;-77
2023/05/01 02:40:39;;;;;;;2.80;2.15;;;;;;;12.12;43.00;99894.94;5031674;28;20053;-78
2023/05/01 02:43:11;;;;;;;4.57;2.17;;;;;;;12.10;43.50;99890.72;5031526;28;20060;-79
2023/05/01 02:45:40;;;;;;;3.72;2.20;;;;;;;12.09;43.39;99897.81;5031143;28;20504;-77
2023/05/01 02:48:10;;;;;;;7.43;1.88;;;;;;;12.07;43.26;99885.66;5030916;28;20056;-78
2023/05/01 02:50:39;;;;;;;4.13;2.10;;;;;;;12.06;43.30;99882.16;5031233;28;20496;-78
2023/05/01 02:53:07;;;;;;;4.20;2.55;;;;;;;12.04;43.19;99881.34;5030110;28;20081;-78
2023/05/01 02:55:34;;;;;;;5.30;2.33;;;;;;;12.05;43.57;99879.56;5031038;28;20053;-78
2023/05/01 02:58:01;;;;;;;6.03;2.40;;;;;;;12.04;43.46;99867.31;5030699;28;20586;-78
2023/05/01 03:00:28;;;;;;;4.28;2.17;;;;;;;12.04;43.47;99868.16;5031277;28;20476;-78
2023/05/01 03:02:55;;;;;;;5.03;2.22;;;;;;;12.04;43.63;99865.53;5031327;28;20085;-78
2023/05/01 03:05:21;;;;;;;5.53;2.60;;;;;;;12.06;43.60;99863.69;5030653;28;20587;-78
2023/05/01 03:07:48;;;;;;;5.30;2.20;;;;;;;12.05;43.57;99861.09;5030761;28;20057;-78
2023/05/01 03:10:14;;;;;;;5.32;2.30;;;;;;;12.06;43.53;99862.81;5031090;28;20049;-79
2023/05/01 03:12:41;;;;;;;7.30;2.80;;;;;;;12.06;43.68;99854.91;5030815;28;20423;-78
2023/05/01 03:15:08;;;;;;;6.47;2.65;;;;;;;12.06;44.00;99857.53;5030550;28;20132;-78
2023/05/01 03:17:34;;;;;;;3.88;2.15;;;;;;;12.05;43.90;99843.53;5030440;28;20082;-78
2023/05/01 03:20:01;;;;;;;7.25;2.80;;;;;;;12.05;44.15;99845.28;5030719;28;20463;-78
2023/05/01 03:22:28;;;;;;;6.40;2.47;;;;;;;12.06;44.00;99844.34;5030837;28;20052;-79
2023/05/01 03:24:54;;;;;;;3.70;2.00;;;;;;;12.05;43.81;99838.25;5030673;28;20107;-78
2023/05/01 03:27:21;;;;;;;4.70;2.50;;;;;;;12.05;43.76;99840.00;5029017;28;20049;-78
2023/05/01 03:29:48;;;;;;;5.20;2.33;;;;;;;12.04;43.99;99833.84;5030400;28;20049;-78
2023/05/01 03:32:16;;;;;;;4.22;2.50;;;;;;;12.03;43.72;99826.06;5030950;28;20088;-78
2023/05/01 03:34:44;;;;;;;3.03;1.88;;;;;;;12.04;43.91;99833.03;5029467;28;20064;-78
2023/05/01 03:37:11;;;;;;;7.75;2.58;;;;;;;12.03;43.96;99826.06;5028767;28;20123;-79
2023/05/01 03:39:37;;;;;;;5.00;2.15;;;;;;;12.03;43.92;99826.88;5030497;28;20053;-78
2023/05/01 03:42:04;;;;;;;5.38;2.30;;;;;;;12.03;43.94;99818.97;5030426;28;20095;-80
2023/05/01 03:44:31;;;;;;;5.55;2.45;;;;;;;12.02;44.14;99817.28;5029617;28;20551;-79
2023/05/01 03:46:57;;;;;;;4.15;2.17;;;;;;;12.01;44.17;99817.38;5029443;28;20508;-79
2023/05/01 03:49:24;;;;;;;5.22;2.22;;;;;;;12.02;44.22;99819.06;5029028;28;20146;-79
2023/05/01 03:51:50;;;;;;;8.75;2.75;;;;;;;12.01;44.16;99812.09;5030193;28;20085;-79
2023/05/01 03:54:17;;;;;;;4.78;2.17;;;;;;;11.99;44.17;99813.06;5030208;28;20470;-79
2023/05/01 03:56:43;;;;;;;2.78;1.90;;;;;;;12.00;44.16;99811.25;5029409;28;20049;-79
2023/05/01 03:59:10;;;;;;;3.78;1.92;;;;;;;11.98;44.18;99800.81;5030095;28;20049;-79
2023/05/01 04:01:37;;;;;;;3.10;2.10;;;;;;;11.99;43.86;99805.13;5030262;28;20084;-79
2023/05/01 04:04:03;;;;;;;6.65;2.25;;;;;;;11.97;43.94;99793.81;5030035;28;20534;-79
2023/05/01 04:06:30;;;;;;;5.70;2.58;;;;;;;11.98;44.05;99794.69;5029788;28;20136;-79
2023/05/01 04:08:56;;;;;;;4.40;2.22;;;;;;;11.98;44.16;99794.69;5029307;28;20462;-79
2023/05/01 04:11:23;;;;;;;7.22;2.50;;;;;;;11.98;43.88;99794.69;5029842;28;20049;-78
2023/05/01 04:13:49;;;;;;;5.57;2.28;;;;;;;11.97;44.01;99788.53;5030106;28;20103;-79
2023/05/01 04:16:16;;;;;;;5.22;2.33;;;;;;;11.98;43.97;99795.53;5029607;28;20507;-78
2023/05/01 04:18:43;;;;;;;4.78;2.10;;;;;;;11.99;44.28;99791.09;5029603;28;20458;-79
2023/05/01 04:21:09;;;;;;;4.10;1.85;;;;;;;12.01;44.05;99791.84;5028924;28;20448;-78
2023/05/01 04:23:36;;;;;;;5.78;2.75;;;;;;;12.01;44.45;99797.13;5029864;28;20061;-78
2023/05/01 04:26:02;;;;;;;5.93;2.67;;;;;;;12.03;44.40;99787.31;5029494;28;20084;-79
2023/05/01 04:28:29;;;;;;;7.43;2.35;;;;;;;12.05;44.29;99790.75;5028363;28;20055;-79
2023/05/01 04:30:57;;;;;;;4.85;2.42;;;;;;;12.06;44.21;99792.44;5029695;28;20523;-79
2023/05/01 04:33:23;;;;;;;7.82;2.40;;;;;;;12.06;44.12;99783.66;5029826;28;20045;-79
2023/05/01 04:35:50;;;;;;;4.82;1.90;;;;;;;12.09;44.04;99784.34;5029291;28;20500;-79
2023/05/01 04:38:19;;;;;;;4.88;2.08;;;;;;;12.10;44.30;99788.66;5029252;28;20127;-79
2023/05/01 04:40:45;;;;;;;5.38;2.28;;;;;;;12.12;44.11;99789.41;5029700;28;20124;-79
2023/05/01 04:43:12;;;;;;;4.85;2.35;;;;;;;12.15;44.06;99782.25;5029864;28;20140;-79
2023/05/01 04:45:38;;;;;;;7.90;2.58;;;;;;;12.17;44.32;99783.84;5029498;28;20103;-79
2023/05/01 04:48:05;;;;;;;5.93;2.28;;;;;;;12.20;43.96;99781.03;5029285;28;20107;-79
2023/05/01 04:50:31;;;;;;;6.95;2.40;;;;;;;12.24;44.08;99773.75;5029524;28;20046;-79
2023/05/01 04:52:58;;;;;;;5.15;2.28;;;;;;;12.29;44.30;99778.75;5029524;28;20132;-79
2023/05/01 04:55:24;;;;;;;4.25;2.40;;;;;;;12.31;43.88;99777.69;5029440;28;20507;-79
2023/05/01 04:57:51;;;;;;;5.70;2.35;;;;;;;12.35;44.14;99770.41;5032715;28;20088;-78
2023/05/01 05:00:18;;;;;;;3.72;2.42;;;;;;;12.40;43.98;99775.41;5033250;28;20064;-79
2023/05/01 05:02:45;;;;;;;6.93;2.22;;;;;;;12.43;43.91;99778.69;5033266;28;20458;-79
2023/05/01 05:05:11;;;;;;;5.45;2.55;;;;;;;12.49;44.23;99780.09;5031727;28;20511;-79
2023/05/01 05:07:38;;;;;;;4.85;2.42;;;;;;;12.52;44.87;99769.31;5032859;28;20107;-79
2023/05/01 05:10:05;;;;;;;7.07;2.42;;;;;;;12.58;44.55;99773.34;5033064;28;20583;-79
2023/05/01 05:12:31;;;;;;;8.57;2.85;;;;;;;12.62;44.23;99781.00;5033132;28;20110;-79
2023/05/01 05:14:57;;;;;;;3.35;2.40;;;;;;;12.66;44.01;99770.22;5032932;28;20092;-79
2023/05/01 05:17:24;;;;;;;5.80;2.40;;;;;;;12.70;44.12;99774.34;5031434;28;20050;-79
2023/05/01 05:19:50;;;;;;;6.07;2.38;;;;;;;12.74;44.06;99773.19;5031736;28;20076;-79
2023/05/01 05:22:17;;;;;;;7.97;2.42;;;;;;;12.78;44.04;99769.41;5032985;28;20115;-79
2023/05/01 05:24:44;;;;;;;5.95;2.83;;;;;;;12.81;43.61;99777.13;5032785;28;20115;-79
2023/05/01 05:27:10;;;;;;;4.90;2.50;;;;;;;12.87;43.77;99775.88;5032538;28;20049;-79
2023/05/01 05:29:36;;;;;;;10.82;2.70;;;;;;;12.93;43.90;99774.63;5032996;28;20510;-79
2023/05/01 05:32:03;;;;;;;7.05;2.42;;;;;;;12.96;43.64;99779.69;5032942;28;20455;-79
2023/05/01 05:34:29;;;;;;;6.60;2.60;;;;;;;13.02;43.41;99776.66;5032731;28;20053;-79
2023/05/01 05:36:56;;;;;;;7.13;2.97;;;;;;;13.06;43.55;99780.78;5031938;28;20488;-79
2023/05/01 05:39:22;;;;;;;5.38;2.72;;;;;;;13.12;43.80;99776.91;5032758;28;20057;-81
2023/05/01 05:41:49;;;;;;;7.43;2.97;;;;;;;13.17;43.49;99774.78;5032814;28;20056;-80
2023/05/01 05:44:15;;;;;;;3.45;2.25;;;;;;;13.24;43.63;99780.50;5030353;28;20561;-79
2023/05/01 05:46:42;;;;;;;6.35;2.90;;;;;;;13.29;43.49;99771.31;5031990;28;20509;-80
2023/05/01 05:49:08;;;;;;;5.47;2.60;;;;;;;13.36;43.88;99776.16;5032244;28;20582;-80
2023/05/01 05:51:35;;;;;;;5.05;2.50;;;;;;;13.41;44.12;99781.97;5032310;28;20482;-79
2023/05/01 05:54:01;;;;;;;8.23;2.85;;;;;;;13.47;43.57;99778.94;5031327;28;20079;-79
2023/05/01 05:56:28;;;;;;;8.70;2.75;;;;;;;13.51;43.55;99782.22;5032263;28;20054;-79
2023/05/01 05:58:54;;;;;;;3.70;2.40;;;;;;;13.56;43.61;99774.81;5031779;28;20057;-79
2023/05/01 06:01:21;;;;;;;6.63;2.58;;;;;;;13.60;43.95;99780.75;5032417;28;20091;-80
2023/05/01 06:03:47;;;;;;;6.97;2.40;;;;;;;13.63;43.71;99768.16;5031257;28;20501;-80
2023/05/01 06:06:14;;;;;;;5.95;2.40;;;;;;;13.68;43.50;99770.47;5032290;28;20383;-79
2023/05/01 06:08:40;;;;;;;6.05;2.45;;;;;;;13.71;43.62;99766.78;5030969;28;20103;-80
2023/05/01 06:11:07;;;;;;;7.28;2.78;;;;;;;13.76;43.56;99765.47;5032156;28;20081;-80
2023/05/01 06:13:34;;;;;;;3.80;2.40;;;;;;;13.81;43.18;99767.81;5031127;28;20092;-79
2023/05/01 06:16:00;;;;;;;3.70;2.28;;;;;;;13.85;43.32;99769.28;5031674;28;20057;-80
2023/05/01 06:18:28;;;;;;;5.18;2.50;;;;;;;13.88;43.53;99766.44;5031518;28;20115;-80
2023/05/01 06:20:55;;;;;;;4.57;2.47;;;;;;;13.93;43.35;99760.81;5032120;28;20049;-80
2023/05/01 06:23:21;;;;;;;7.82;2.72;;;;;;;13.97;43.28;99762.28;5032184;28;20122;-80
2023/05/01 06:25:48;;;;;;;5.82;2.30;;;;;;;14.02;43.47;99762.78;5031505;28;20463;-79
2023/05/01 06:28:14;;;;;;;4.57;2.40;;;;;;;14.06;43.33;99760.78;5031408;28;20064;-80
2023/05/01 06:30:41;;;;;;;4.95;2.53;;;;;;;14.12;43.22;99757.69;5031634;28;20381;-80
2023/05/01 06:33:09;;;;;;;7.57;2.42;;;;;;;14.17;42.66;99755.53;5031601;28;20089;-84
2023/05/01 06:35:38;;;;;;;5.75;2.28;;;;;;;14.23;43.21;99759.56;5031449;28;20096;-79
2023/05/01 06:38:05;;;;;;;5.95;2.42;;;;;;;14.30;43.08;99763.47;5031241;28;20049;-80
2023/05/01 06:40:33;;;;;;;6.70;2.72;;;;;;;14.36;43.20;99758.66;5031668;28;20115;-80
2023/05/01 06:43:01;;;;;;;3.95;2.50;;;;;;;14.44;42.89;99767.72;5031630;28;20049;-79
2023/05/01 06:45:28;;;;;;;6.03;2.40;;;;;;;14.52;43.03;99764.53;5031150;28;20092;-79
2023/05/01 06:47:54;;;;;;;9.63;2.63;;;;;;;14.59;42.71;99757.81;5031038;28;20058;-79
2023/05/01 06:50:21;;;;;;;5.47;2.58;;;;;;;14.67;42.46;99759.91;5029907;28;20484;-79
2023/05/01 06:52:47;;;;;;;4.72;2.50;;;;;;;14.78;42.60;99755.63;5030122;28;20057;-80
2023/05/01 06:55:14;;;;;;;6.00;2.63;;;;;;;14.89;42.58;99762.78;5029770;28;20108;-80
2023/05/01 06:57:41;;;;;;;5.28;2.53;;;;;;;14.99;42.71;99758.47;5030963;28;20045;-80
2023/05/01 07:00:09;;;;;;;5.07;2.55;;;;;;;15.09;42.63;99753.31;5030970;28;20462;-80
2023/05/01 07:02:36;;;;;;;6.72;2.55;;;;;;;15.19;42.71;99753.47;5030159;28;20411;-80
2023/05/01 07:05:04;;;;;;;7.20;2.65;;;;;;;15.29;42.28;99758.91;5029576;28;20463;-80
2023/05/01 07:07:30;;;;;;;4.90;2.47;;;;;;;15.37;42.04;99756.50;5030783;28;20053;-79
2023/05/01 07:09:57;;;;;;;6.00;2.63;;;;;;;15.46;42.27;99754.94;5029626;28;20077;-80
2023/05/01 07:12:24;;;;;;;7.43;2.80;;;;;;;15.55;42.33;99756.03;5030773;28;20052;-80
2023/05/01 07:14:50;;;;;;;4.45;2.38;;;;;;;15.64;42.57;99750.84;5030599;28;20057;-80
2023/05/01 07:17:16;;;;;;;4.07;2.33;;;;;;;15.73;42.17;99751.06;5029324;28;20095;-80
2023/05/01 07:19:43;;;;;;;5.30;2.50;;;;;;;15.82;42.08;99749.53;5030992;28;20057;-80
2023/05/01 07:22:09;;;;;;;6.80;2.83;;;;;;;15.91;41.60;99748.78;5030767;28;20073;-80
2023/05/01 07:24:35;;;;;;;5.70;2.35;;;;;;;15.99;41.35;99750.84;5029048;28;20504;-80
2023/05/01 07:27:02;;;;;;;5.68;2.40;;;;;;;16.05;41.99;99754.81;5029925;28;20515;-80
2023/05/01 07:29:28;;;;;;;6.28;2.58;;;;;;;16.14;41.57;99752.28;5030491;28;20064;-80
2023/05/01 07:31:55;;;;;;;5.55;2.63;;;;;;;16.21;41.95;99749.97;5030267;28;20049;-80
2023/05/01 07:34:21;;;;;;;8.45;2.83;;;;;;;16.26;41.50;99747.78;5030318;28;20091;-80
2023/05/01 07:36:47;;;;;;;6.72;2.42;;;;;;;16.32;41.76;99745.59;5029836;28;20053;-80
2023/05/01 07:39:14;;;;;;;7.75;2.67;;;;;;;16.36;41.34;99750.53;5030503;28;20081;-80
2023/05/01 07:41:40;;;;;;;9.50;3.00;;;;;;;16.42;41.64;99746.53;5030269;28;20463;-80
2023/05/01 07:44:06;;;;;;;4.55;2.63;;;;;;;16.47;42.16;99744.34;5029246;28;20054;-80
2023/05/01 07:46:34;;;;;;;6.32;2.75;;;;;;;16.53;41.84;99750.97;5029339;28;20127;-80
2023/05/01 07:49:01;;;;;;;4.50;2.50;;;;;;;16.60;42.13;99746.00;5029758;28;20049;-80
2023/05/01 07:51:27;;;;;;;8.25;2.70;;;;;;;16.68;42.05;99752.34;5029866;28;20081;-80
2023/05/01 07:53:54;;;;;;;6.43;2.50;;;;;;;16.77;42.14;99748.09;5030192;28;20049;-80
2023/05/01 07:56:20;;;;;;;5.20;2.50;;;;;;;16.88;42.54;99746.34;5029404;28;20049;-80
2023/05/01 08:01:22;;;;;;;5.75;2.25;;;;;;;17.11;41.49;99752.41;4999866;23;20123;-76
2023/05/01 08:03:49;;;;;;;5.60;2.53;;;;;;;17.22;41.50;99747.97;5030686;28;20045;-77
2023/05/01 08:06:16;;;;;;;6.40;2.40;;;;;;;17.28;41.14;99745.66;5030399;28;20457;-77
2023/05/01 08:08:43;;;;;;;4.18;2.35;;;;;;;17.36;41.18;99742.34;5028932;28;20057;-78
2023/05/01 08:11:10;;;;;;;5.28;2.20;;;;;;;17.44;41.43;99742.53;5030674;28;20049;-77
2023/05/01 08:13:37;;;;;;;4.43;2.63;;;;;;;17.53;41.24;99737.38;5030619;28;20057;-78
2023/05/01 08:16:04;;;;;;;6.13;2.38;;;;;;;17.62;42.01;99735.72;5030335;28;20145;-78
2023/05/01 08:18:30;;;;;;;6.57;2.33;;;;;;;17.73;41.84;99742.75;5030258;28;20064;-76
2023/05/01 08:20:57;;;;;;;6.90;2.85;;;;;;;17.84;41.50;99743.50;5030703;28;20057;-78
2023/05/01 08:23:24;;;;;;;5.45;2.78;;;;;;;17.95;41.32;99745.22;5030647;28;20052;-77
2023/05/01 08:25:51;;;;;;;5.47;2.70;;;;;;;18.06;41.43;99746.94;5028990;28;20053;-78
2023/05/01 08:28:21;;;;;;;4.50;2.50;;;;;;;18.14;41.37;99738.31;5030027;28;20069;-77
2023/05/01 08:30:50;;;;;;;5.05;2.30;;;;;;;18.23;41.47;99742.81;5030820;28;20053;-77
2023/05/01 08:33:17;;;;;;;4.78;2.40;;;;;;;18.32;40.87;99742.97;5034768;28;20045;-78
2023/05/01 08:35:44;;;;;;;5.75;2.50;;;;;;;18.41;40.90;99741.25;5034292;28;20045;-78
2023/05/01 08:38:11;;;;;;;3.50;2.45;;;;;;;18.51;40.64;99746.59;5032886;28;20053;-78
2023/05/01 08:40:39;;;;;;;6.05;2.80;;;;;;;18.59;40.19;99741.41;5034400;28;20049;-76
2023/05/01 08:43:06;;;;;;;5.35;2.55;;;;;;;18.67;39.76;99738.91;5033293;28;20128;-77
2023/05/01 08:45:36;;;;;;;3.10;2.25;;;;;;;18.71;39.95;99729.63;5034107;28;20049;-77
2023/05/01 08:48:08;;;;;;;5.28;2.50;;;;;;;18.77;39.79;99733.56;5034204;28;20065;-78
2023/05/01 08:50:38;;;;;;;5.85;2.00;;;;;;;18.85;39.84;99728.38;5034208;28;20053;-78
2023/05/01 08:53:05;;;;;;;4.60;2.22;;;;;;;18.94;40.09;99726.66;5034004;28;20413;-77
2023/05/01 08:55:33;;;;;;;3.75;1.80;;;;;;;19.01;40.00;99729.59;5033996;28;20057;-76
2023/05/01 08:58:03;;;;;;;3.17;2.03;;;;;;;19.10;40.25;99730.59;5033563;28;20054;-77
2023/05/01 09:00:33;;;;;;;2.70;1.88;;;;;;;19.18;39.81;99730.72;5034237;28;20398;-77
2023/05/01 09:03:01;;;;;;;3.78;1.90;;;;;;;19.24;40.20;99735.47;5033995;28;20085;-77
2023/05/01 09:05:31;;;;;;;5.45;2.03;;;;;;;19.29;40.09;99735.06;5033806;28;20050;-77
2023/05/01 09:07:59;;;;;;;5.60;1.90;;;;;;;19.34;40.11;99729.25;5032445;28;20042;-77
2023/05/01 09:10:26;;;;;;;2.95;1.70;;;;;;;19.36;39.37;99728.13;5033812;28;20064;-77
2023/05/01 09:12:59;;;;;;;5.70;2.80;;;;;;;19.38;38.74;99723.50;5033416;28;20046;-77
2023/05/01 09:15:27;;;;;;;3.75;1.90;;;;;;;19.47;38.90;99718.28;5032098;28;20056;-77
2023/05/01 09:17:55;;;;;;;3.85;2.05;;;;;;;19.53;38.58;99715.84;5033254;28;20041;-77
2023/05/01 09:20:22;;;;;;;3.60;1.73;;;;;;;19.61;38.77;99714.25;5033964;28;20045;-77
2023/05/01 09:22:49;;;;;;;2.92;1.80;;;;;;;19.69;38.70;99710.88;5032372;28;20560;-77
2023/05/01 09:25:16;;;;;;;3.10;1.90;;;;;;;19.79;38.71;99706.31;5033390;28;20568;-78
2023/05/01 09:27:44;;;;;;;4.95;1.63;;;;;;;19.88;39.25;99709.91;5033079;28;20561;-77
2023/05/01 09:30:30;;;;;;;3.65;1.60;;;;;;;19.93;38.86;99708.47;5033517;28;20136;-78
2023/05/01 09:33:11;;;;;;;2.42;1.50;;;;;;;20.10;38.63;99708.69;5033325;28;20046;-76
2023/05/01 09:35:54;;;;;;;4.07;1.98;;;;;;;20.28;38.50;99697.16;5033155;28;20053;-77
2023/05/01 09:38:26;;;;;;;3.67;1.65;;;;;;;20.46;38.26;99709.69;5031752;28;20058;-78
2023/05/01 09:40:55;;;;;;;5.68;1.98;;;;;;;20.58;38.25;99695.09;5033156;28;20057;-76
2023/05/01 09:43:26;;;;;;;3.35;1.85;;;;;;;20.64;37.76;99697.13;5033027;28;20136;-78
2023/05/01 09:46:10;;;;;;;2.63;1.95;;;;;;;20.71;38.00;99697.38;5032960;28;20046;-76
2023/05/01 09:48:37;;;;;;;3.70;2.08;;;;;;;20.82;37.80;99701.63;5032928;28;20525;-77
2023/05/01 09:51:30;;;;;;;5.75;1.90;;;;;;;20.81;38.54;99692.75;5033023;28;20501;-79
2023/05/01 09:53:59;;;;;;;2.70;1.70;;;;;;;20.93;38.11;99689.88;5032016;28;20132;-77
2023/05/01 09:56:27;;;;;;;4.57;2.28;;;;;;;20.98;37.54;99698.25;5032592;28;20060;-77
2023/05/01 09:58:55;;;;;;;3.10;1.85;;;;;;;21.05;37.07;99701.16;5031412;28;20057;-78
2023/05/01 10:01:42;;;;;;;4.13;1.67;;;;;;;21.07;37.93;99685.75;5033168;28;20103;-78
2023/05/01 10:04:09;;;;;;;3.42;1.92;;;;;;;21.19;37.95;99692.53;5032945;28;20092;-78
2023/05/01 10:06:36;;;;;;;4.07;2.20;;;;;;;21.26;37.73;99682.03;5032230;28;20050;-78
2023/05/01 10:09:06;;;;;;;4.28;1.80;;;;;;;21.34;37.86;99692.78;5031688;28;20060;-79
2023/05/01 10:11:50;;;;;;;3.55;2.10;;;;;;;21.40;36.87;99685.09;5031556;28;20053;-77
2023/05/01 10:14:19;;;;;;;3.67;1.98;;;;;;;21.54;38.52;99702.41;5032620;28;20053;-77
2023/05/01 10:16:45;;;;;;;2.15;1.60;;;;;;;21.60;38.14;99688.34;5032090;28;20085;-78
2023/05/01 10:19:15;;;;;;;2.63;1.85;;;;;;;21.65;37.70;99691.41;5031469;28;20060;-78
2023/05/01 10:21:42;;;;;;;3.22;1.85;;;;;;;21.70;38.02;99682.88;5032597;28;20057;-78
2023/05/01 10:24:08;;;;;;;7.50;1.67;;;;;;;21.78;37.61;99690.13;5032539;28;20057;-78
2023/05/01 10:26:36;;;;;;;6.60;2.10;;;;;;;21.85;37.73;99692.00;5031620;28;20486;-77
2023/05/01 10:29:03;;;;;;;3.55;1.60;;;;;;;21.92;37.16;99686.84;5032406;28;20099;-79
2023/05/01 10:31:31;;;;;;;2.08;1.50;;;;;;;21.98;37.06;99688.84;5032434;28;20060;-78
2023/05/01 10:34:02;;;;;;;2.53;1.48;;;;;;;22.04;37.31;99689.19;5032555;28;20053;-79
2023/05/01 10:36:38;;;;;;;3.00;1.70;;;;;;;22.08;35.79;99686.03;5032001;28;20118;-78
2023/05/01 10:39:04;;;;;;;2.08;1.45;;;;;;;22.18;37.08;99685.88;5031185;28;20054;-79
2023/05/01 10:41:57;;;;;;;3.63;1.73;;;;;;;22.23;37.01;99682.69;5032021;28;20059;-78
2023/05/01 10:44:25;;;;;;;6.03;1.77;;;;;;;22.39;37.66;99687.25;5001176;28;20083;-79
2023/05/01 10:46:53;;;;;;;4.90;2.00;;;;;;;22.52;37.46;99684.06;5031397;28;20168;-78
2023/05/01 10:49:20;;;;;;;2.85;1.75;;;;;;;22.69;37.73;99676.03;5030991;28;20132;-79
2023/05/01 10:51:56;;;;;;;2.63;1.65;;;;;;;22.93;36.59;99677.00;5031822;28;20060;-78
2023/05/01 10:54:23;;;;;;;3.40;1.63;;;;;;;23.31;38.00;99674.56;5031659;28;20058;-79
2023/05/01 10:56:50;;;;;;;5.78;2.00;;;;;;;23.73;37.76;99675.25;5031066;28;20049;-79
2023/05/01 10:59:16;;;;;;;3.42;1.70;;;;;;;24.21;37.69;99668.94;5032060;28;20081;-79
2023/05/01 11:01:46;;;;;;;4.18;1.67;;;;;;;24.68;36.58;99669.75;5031739;28;20059;-79
2023/05/01 11:04:21;;;;;;;3.42;1.48;;;;;;;25.11;35.51;99669.16;5031716;28;20107;-77
2023/05/01 11:07:00;;;;;;;4.90;2.05;;;;;;;25.56;34.36;99660.22;5031244;28;20139;-79
2023/05/01 11:09:40;;;;;;;2.05;1.70;;;;;;;26.07;34.45;99657.66;5031822;28;20494;-78
2023/05/01 11:12:08;;;;;;;2.97;1.80;;;;;;;26.61;34.31;99653.59;5030442;28;20052;-79
2023/05/01 11:14:54;;;;;;;5.18;1.60;;;;;;;27.16;34.43;99652.97;5031668;28;20079;-79
2023/05/01 11:17:40;;;;;;;2.38;1.35;;;;;;;27.77;33.89;99647.00;5031237;28;20057;-79
2023/05/01 11:20:07;;;;;;;2.05;1.10;;;;;;;28.32;32.73;99649.59;5031720;28;20135;-79
2023/05/01 11:22:35;;;;;;;1.52;1.08;;;;;;;28.82;31.67;99645.59;5031564;28;20049;-80
2023/05/01 11:25:04;;;;;;;1.92;1.35;;;;;;;29.25;30.17;99644.28;5031105;28;20088;-79
2023/05/01 11:27:30;;;;;;;1.63;1.50;;;;;;;29.65;29.86;99639.78;5031099;28;20132;-78
2023/05/01 11:30:00;;;;;;;2.17;1.30;;;;;;;30.00;29.24;99636.63;5031562;28;20045;-78
2023/05/01 11:32:28;;;;;;;2.13;1.48;;;;;;;30.34;28.69;99641.84;5031284;28;20053;-78
2023/05/01 11:34:56;;;;;;;1.92;1.25;;;;;;;30.66;28.75;99638.22;5030980;28;20059;-80
2023/05/01 11:37:43;;;;;;;2.95;1.20;;;;;;;30.92;29.40;99634.44;5030840;28;20192;-80
2023/05/01 11:40:30;;;;;;;1.80;1.27;;;;;;;31.18;29.08;99627.00;5031388;28;20064;-80
2023/05/01 11:43:01;;;;;;;2.95;1.23;;;;;;;31.29;27.47;99628.13;5030038;28;20049;-80
2023/05/01 11:45:28;;;;;;;2.85;1.45;;;;;;;31.28;27.28;99622.94;5029512;28;20091;-79